Time;durP1;ratioP1;P1;durP2;ratioP2;P2;SDS_P1;SDS_P2;PMS_P1;PMS_P2;Temp;Humidity;BMP_temperature;BMP_pressure;BME280_temperature;BME280_humidity;BME280_pressure;Samples;Min_cycle;Max_cycle;Signal;HPM_P1;HPM_P2
2023/08/17 00:00:13;;;;;;;8.70;7.23;;;19.90;99.90;;;;;;6067649;23;20551;-70
2023/08/17 00:02:39;;;;;;;8.60;6.77;;;19.90;99.90;;;;;;6067431;23;20589;-69
2023/08/17 00:05:06;;;;;;;7.23;6.53;;;19.80;99.90;;;;;;6067977;23;20350;-68
2023/08/17 00:07:32;;;;;;;10.50;8.23;;;19.70;99.90;;;;;;6068169;23;20138;-68
2023/08/17 00:09:57;;;;;;;8.90;6.60;;;19.70;99.90;;;;;;6067775;23;20456;-69
2023/08/17 00:12:23;;;;;;;9.17;7.23;;;19.70;99.90;;;;;;6043278;23;20158;-69
2023/08/17 00:14:48;;;;;;;8.17;7.23;;;19.70;99.90;;;;;;6068592;23;20145;-67
2023/08/17 00:17:14;;;;;;;7.67;6.93;;;19.70;99.90;;;;;;6068910;23;20145;-69
2023/08/17 00:19:40;;;;;;;10.20;7.60;;;19.60;99.90;;;;;;6067712;23;20338;-67
2023/08/17 00:22:05;;;;;;;11.20;7.90;;;19.60;99.90;;;;;;6046386;23;20208;-69
2023/08/17 00:24:31;;;;;;;8.93;8.13;;;19.60;99.90;;;;;;6068592;23;20152;-69
2023/08/17 00:26:56;;;;;;;7.20;6.60;;;19.60;99.90;;;;;;6066863;23;20153;-69
2023/08/17 00:29:22;;;;;;;7.67;6.87;;;19.60;99.90;;;;;;6068262;23;20168;-69
2023/08/17 00:31:48;;;;;;;7.20;6.50;;;19.60;99.90;;;;;;6067393;23;20609;-68
2023/08/17 00:34:14;;;;;;;10.00;7.90;;;19.50;99.90;;;;;;6067113;23;20466;-68
2023/08/17 00:36:39;;;;;;;10.70;7.10;;;19.50;99.90;;;;;;6101068;23;20540;-69
2023/08/17 00:39:05;;;;;;;7.97;7.27;;;19.50;99.90;;;;;;6187940;23;20174;-69
2023/08/17 00:41:30;;;;;;;7.60;6.90;;;19.40;99.90;;;;;;6168358;23;20187;-68
2023/08/17 00:43:56;;;;;;;10.10;6.40;;;19.40;99.90;;;;;;6131800;23;20139;-69
2023/08/17 00:46:24;;;;;;;8.70;7.90;;;19.40;99.90;;;;;;6132149;23;20151;-68
2023/08/17 00:48:50;;;;;;;7.93;7.13;;;19.30;99.90;;;;;;6158278;23;20382;-69
2023/08/17 00:51:16;;;;;;;9.10;7.33;;;19.30;99.90;;;;;;6132508;23;20461;-68
2023/08/17 00:53:42;;;;;;;9.20;7.10;;;19.30;99.90;;;;;;6132207;23;20379;-68
2023/08/17 00:56:08;;;;;;;8.20;7.37;;;19.30;99.90;;;;;;6132368;23;20151;-69
2023/08/17 00:58:34;;;;;;;7.23;6.57;;;19.30;99.90;;;;;;6157430;23;20410;-69
2023/08/17 01:01:00;;;;;;;8.50;7.30;;;19.40;99.90;;;;;;6158405;23;20608;-68
2023/08/17 01:03:30;;;;;;;7.00;6.20;;;19.40;99.90;;;;;;6157049;23;20351;-69
2023/08/17 01:05:57;;;;;;;7.63;6.80;;;19.40;99.90;;;;;;6157737;23;20362;-69
2023/08/17 01:08:24;;;;;;;8.33;7.20;;;19.30;99.90;;;;;;6132110;23;20406;-69
2023/08/17 01:11:07;;;;;;;7.13;6.43;;;19.40;99.90;;;;;;6131519;23;20398;-69
2023/08/17 01:13:42;;;;;;;6.90;6.33;;;19.40;99.90;;;;;;6131124;23;20393;-67
2023/08/17 01:16:12;;;;;;;7.87;6.80;;;19.30;99.90;;;;;;6131647;23;20377;-68
2023/08/17 01:18:40;;;;;;;6.90;6.30;;;19.30;99.90;;;;;;6131057;23;20433;-67
2023/08/17 01:21:07;;;;;;;10.40;6.70;;;19.30;99.90;;;;;;6157398;23;20414;-68
2023/08/17 01:23:33;;;;;;;7.03;6.37;;;19.20;99.90;;;;;;6131395;23;20371;-68
2023/08/17 01:25:59;;;;;;;6.90;6.20;;;19.20;99.90;;;;;;6131710;23;20383;-67
2023/08/17 01:28:25;;;;;;;8.50;6.50;;;19.10;99.90;;;;;;6157895;23;20398;-69
2023/08/17 01:31:11;;;;;;;9.23;6.00;;;19.10;99.90;;;;;;6157310;23;20468;-70
2023/08/17 01:33:52;;;;;;;9.30;8.40;;;19.00;99.90;;;;;;6130691;23;20792;-68
2023/08/17 01:36:24;;;;;;;7.07;6.30;;;19.00;99.90;;;;;;6131549;23;20441;-69
2023/08/17 01:38:52;;;;;;;7.97;7.23;;;19.00;99.90;;;;;;6157218;23;20366;-69
2023/08/17 01:41:20;;;;;;;10.43;7.03;;;19.00;99.90;;;;;;6146664;23;20691;-69
2023/08/17 01:43:47;;;;;;;10.30;7.93;;;19.10;99.90;;;;;;6160972;23;20748;-69
2023/08/17 01:46:17;;;;;;;8.93;7.43;;;19.10;99.90;;;;;;6187341;23;20624;-68
2023/08/17 01:48:43;;;;;;;8.50;7.70;;;19.20;99.90;;;;;;6160589;23;20374;-69
2023/08/17 01:51:09;;;;;;;7.40;6.70;;;19.10;99.90;;;;;;6187154;23;20400;-68
2023/08/17 01:53:35;;;;;;;8.03;7.20;;;19.20;99.90;;;;;;6160772;23;20436;-67
2023/08/17 01:56:00;;;;;;;7.80;7.00;;;19.20;99.90;;;;;;6187423;23;20369;-69
2023/08/17 01:58:26;;;;;;;7.07;6.07;;;19.20;99.90;;;;;;6161226;23;20146;-68
2023/08/17 02:00:52;;;;;;;9.07;6.70;;;19.20;99.90;;;;;;6160562;23;20257;-69
2023/08/17 02:03:17;;;;;;;9.47;6.87;;;19.20;99.90;;;;;;6186520;23;20139;-68
2023/08/17 02:05:46;;;;;;;7.93;7.10;;;19.20;99.90;;;;;;6187457;23;20563;-69
2023/08/17 02:08:14;;;;;;;7.00;6.20;;;19.20;99.90;;;;;;6187174;23;20547;-68
2023/08/17 02:10:39;;;;;;;7.70;7.03;;;19.20;99.90;;;;;;6160173;23;20398;-67
2023/08/17 02:13:05;;;;;;;13.17;6.23;;;19.20;99.90;;;;;;6186973;23;20206;-68
2023/08/17 02:15:31;;;;;;;6.73;6.13;;;19.20;99.90;;;;;;6159842;23;20154;-69
2023/08/17 02:18:00;;;;;;;6.57;6.03;;;19.20;99.90;;;;;;6187211;23;20629;-68
2023/08/17 02:20:25;;;;;;;9.33;7.13;;;19.20;99.90;;;;;;6189245;23;20174;-69
2023/08/17 02:22:51;;;;;;;9.23;6.37;;;19.20;99.90;;;;;;6189472;23;20493;-70
2023/08/17 02:25:17;;;;;;;8.10;5.80;;;19.20;99.90;;;;;;6189343;23;20134;-69
2023/08/17 02:27:43;;;;;;;7.50;5.93;;;19.20;99.90;;;;;;6162752;23;20220;-69
2023/08/17 02:30:10;;;;;;;5.67;5.20;;;19.20;99.90;;;;;;6162224;23;20394;-68
2023/08/17 02:32:35;;;;;;;5.70;5.20;;;19.20;99.90;;;;;;6188434;23;20369;-68
2023/08/17 02:35:01;;;;;;;6.33;5.60;;;19.10;99.90;;;;;;6188068;23;20361;-70
2023/08/17 02:37:27;;;;;;;7.90;5.40;;;19.10;99.90;;;;;;6162990;23;20524;-68
2023/08/17 02:39:52;;;;;;;5.53;5.03;;;19.10;99.90;;;;;;6188020;23;20166;-68
2023/08/17 02:42:18;;;;;;;6.00;5.43;;;19.10;99.90;;;;;;6187981;23;20244;-67
2023/08/17 02:44:43;;;;;;;5.40;4.90;;;19.10;99.90;;;;;;6194108;23;20401;-69
2023/08/17 02:47:09;;;;;;;5.70;5.20;;;19.00;99.90;;;;;;6188897;23;20142;-68
2023/08/17 02:49:35;;;;;;;6.30;5.73;;;19.10;99.90;;;;;;6188194;23;20181;-68
2023/08/17 02:52:00;;;;;;;5.30;4.80;;;19.10;99.90;;;;;;6188283;23;20138;-68
2023/08/17 02:54:26;;;;;;;5.23;4.80;;;19.10;99.90;;;;;;6168602;23;20419;-69
2023/08/17 02:56:52;;;;;;;4.33;3.93;;;19.00;99.90;;;;;;6167860;23;20416;-69
2023/08/17 02:59:17;;;;;;;4.57;3.97;;;19.00;99.90;;;;;;6191005;23;20138;-67
2023/08/17 03:01:45;;;;;;;4.80;4.10;;;19.00;99.90;;;;;;6168029;23;20162;-69
2023/08/17 03:04:12;;;;;;;2.90;2.70;;;19.00;99.90;;;;;;6162420;23;20182;-69
2023/08/17 03:06:38;;;;;;;4.70;4.30;;;19.00;99.90;;;;;;6188299;23;20354;-69
2023/08/17 03:09:04;;;;;;;3.63;3.33;;;19.00;99.90;;;;;;6162132;23;20138;-68
2023/08/17 03:11:29;;;;;;;3.90;3.50;;;19.00;99.90;;;;;;6187656;23;20245;-68
2023/08/17 03:13:59;;;;;;;4.30;3.90;;;18.90;99.90;;;;;;6186790;23;20612;-68
2023/08/17 03:16:27;;;;;;;4.20;3.83;;;18.90;99.90;;;;;;6161076;23;20221;-68
2023/08/17 03:18:53;;;;;;;3.63;3.33;;;18.80;99.90;;;;;;6188215;23;20356;-68
2023/08/17 03:21:19;;;;;;;4.07;3.77;;;18.80;99.90;;;;;;6162030;23;20912;-69
2023/08/17 03:23:46;;;;;;;3.63;3.33;;;18.80;99.90;;;;;;6188621;23;20142;-68
2023/08/17 03:26:11;;;;;;;5.20;3.30;;;18.80;99.90;;;;;;6187879;23;20361;-69
2023/08/17 03:28:37;;;;;;;3.30;3.00;;;18.80;99.90;;;;;;6161410;23;20230;-68
2023/08/17 03:31:03;;;;;;;3.07;2.87;;;18.80;99.90;;;;;;6188040;23;20229;-69
2023/08/17 03:33:29;;;;;;;3.03;2.83;;;18.80;99.90;;;;;;6161346;23;20366;-69
2023/08/17 03:35:55;;;;;;;3.57;3.27;;;18.80;99.90;;;;;;6186450;23;20588;-69
2023/08/17 03:38:20;;;;;;;4.27;3.87;;;18.90;99.90;;;;;;6188690;23;20397;-68
2023/08/17 03:40:47;;;;;;;4.50;4.10;;;18.90;99.90;;;;;;6187536;23;20213;-68
2023/08/17 03:43:13;;;;;;;6.93;4.70;;;18.90;99.90;;;;;;6161736;23;20150;-68
2023/08/17 03:45:41;;;;;;;5.87;5.20;;;19.00;99.90;;;;;;6188356;23;20512;-68
2023/08/17 03:48:07;;;;;;;6.13;5.63;;;19.00;99.90;;;;;;6161659;23;20378;-68
2023/08/17 03:50:33;;;;;;;7.03;5.87;;;19.00;99.90;;;;;;6187455;23;20662;-68
2023/08/17 03:52:58;;;;;;;5.93;5.37;;;19.00;99.90;;;;;;6187675;23;20377;-68
2023/08/17 03:55:24;;;;;;;6.10;5.50;;;19.00;99.90;;;;;;6187610;23;20497;-68
2023/08/17 03:57:50;;;;;;;8.03;5.80;;;19.00;99.90;;;;;;6162189;23;20532;-68
2023/08/17 04:00:16;;;;;;;6.80;5.57;;;19.00;99.90;;;;;;6161503;23;20391;-69
2023/08/17 04:02:41;;;;;;;5.87;5.37;;;19.00;99.90;;;;;;6191593;23;20201;-70
2023/08/17 04:05:09;;;;;;;6.47;5.30;;;19.00;99.90;;;;;;6164628;23;20564;-69
2023/08/17 04:07:36;;;;;;;8.20;7.60;;;19.00;99.90;;;;;;6165333;23;20384;-69
2023/08/17 04:10:05;;;;;;;9.00;6.87;;;19.00;99.90;;;;;;6192426;23;20417;-69
2023/08/17 04:12:32;;;;;;;7.13;6.53;;;19.00;99.90;;;;;;6192376;23;20612;-69
2023/08/17 04:14:57;;;;;;;8.03;7.23;;;19.00;99.90;;;;;;6169570;23;20405;-68
2023/08/17 04:17:23;;;;;;;8.10;7.30;;;18.90;99.90;;;;;;6169508;23;20255;-70
2023/08/17 04:19:49;;;;;;;7.70;7.10;;;18.90;99.90;;;;;;6194798;23;20182;-70
2023/08/17 04:22:14;;;;;;;7.93;7.23;;;18.90;99.90;;;;;;6166877;23;20406;-70
2023/08/17 04:24:40;;;;;;;11.97;9.80;;;18.90;99.90;;;;;;6172476;23;20142;-70
2023/08/17 04:27:06;;;;;;;8.97;8.17;;;18.90;99.90;;;;;;6170525;23;20154;-70
2023/08/17 04:29:32;;;;;;;10.20;9.30;;;18.80;99.90;;;;;;6194384;23;20398;-70
2023/08/17 04:32:00;;;;;;;9.07;8.27;;;18.90;99.90;;;;;;6145257;23;20147;-69
2023/08/17 04:34:26;;;;;;;8.10;7.40;;;18.80;99.90;;;;;;6168763;23;20366;-69
2023/08/17 04:36:52;;;;;;;9.60;8.73;;;18.80;99.90;;;;;;6195612;23;20151;-69
2023/08/17 04:39:17;;;;;;;8.60;7.53;;;18.80;99.90;;;;;;6196571;23;20210;-69
2023/08/17 04:41:43;;;;;;;7.83;7.13;;;18.70;99.90;;;;;;6148907;23;20214;-70
2023/08/17 04:44:11;;;;;;;8.27;7.10;;;18.80;99.90;;;;;;6169685;23;20203;-69
2023/08/17 04:46:37;;;;;;;10.33;7.47;;;18.70;99.90;;;;;;6142147;23;20978;-68
2023/08/17 04:49:03;;;;;;;7.90;7.10;;;18.70;99.90;;;;;;6171982;23;20143;-72
2023/08/17 04:51:30;;;;;;;8.80;6.90;;;18.70;99.90;;;;;;6122864;23;20391;-69
2023/08/17 04:53:56;;;;;;;8.17;7.47;;;18.70;99.90;;;;;;6118654;23;20827;-71
2023/08/17 04:56:22;;;;;;;8.23;7.50;;;18.70;99.90;;;;;;6140555;23;20382;-73
2023/08/17 04:58:48;;;;;;;9.40;8.07;;;18.80;99.90;;;;;;6168902;23;20143;-69
2023/08/17 05:01:15;;;;;;;8.23;7.10;;;18.70;99.90;;;;;;6169243;23;20194;-69
2023/08/17 05:03:41;;;;;;;7.23;6.63;;;18.70;99.90;;;;;;6166210;23;20370;-69
2023/08/17 05:06:07;;;;;;;6.60;6.00;;;18.70;99.90;;;;;;6168040;23;20398;-71
2023/08/17 05:08:32;;;;;;;5.70;5.20;;;18.70;99.90;;;;;;6143610;23;20151;-70
2023/08/17 05:10:58;;;;;;;10.80;8.50;;;18.70;99.90;;;;;;6169326;23;20171;-70
2023/08/17 05:13:25;;;;;;;7.00;6.30;;;18.80;99.90;;;;;;6144939;23;20161;-70
2023/08/17 05:15:52;;;;;;;7.70;7.00;;;18.80;99.90;;;;;;6144496;23;20378;-74
2023/08/17 05:18:18;;;;;;;6.20;5.60;;;18.80;99.90;;;;;;6119329;23;20463;-70
2023/08/17 05:20:45;;;;;;;6.47;5.90;;;18.80;99.90;;;;;;6142830;23;20442;-71
2023/08/17 05:23:12;;;;;;;6.80;6.30;;;18.80;99.90;;;;;;6167192;23;20374;-69
2023/08/17 05:25:38;;;;;;;8.33;7.53;;;18.80;99.90;;;;;;6145374;23;20379;-71
2023/08/17 05:28:04;;;;;;;9.07;7.87;;;18.80;99.90;;;;;;6168341;23;20139;-72
2023/08/17 05:30:30;;;;;;;7.60;6.90;;;18.80;99.90;;;;;;6166270;23;20569;-72
2023/08/17 05:32:55;;;;;;;6.00;5.50;;;18.80;99.90;;;;;;6143683;23;20462;-70
2023/08/17 05:35:21;;;;;;;5.67;5.17;;;18.80;99.90;;;;;;6144484;23;20409;-70
2023/08/17 05:37:47;;;;;;;9.73;8.17;;;18.90;99.90;;;;;;6168811;23;20367;-72
2023/08/17 05:40:13;;;;;;;7.23;6.50;;;18.90;99.90;;;;;;6148474;23;20163;-72
2023/08/17 05:42:39;;;;;;;9.13;6.70;;;18.90;99.90;;;;;;6149360;23;20198;-73
2023/08/17 05:45:05;;;;;;;7.30;6.70;;;18.90;99.90;;;;;;6173496;23;20447;-73
2023/08/17 05:47:31;;;;;;;11.03;8.47;;;18.90;99.90;;;;;;6151002;23;20186;-73
2023/08/17 05:49:57;;;;;;;7.60;6.73;;;18.90;99.90;;;;;;6200025;23;20508;-73
2023/08/17 05:52:22;;;;;;;8.43;7.30;;;18.90;99.90;;;;;;6199915;23;20154;-71
2023/08/17 05:54:48;;;;;;;9.70;8.80;;;18.90;99.90;;;;;;6173731;23;20146;-72
2023/08/17 05:57:14;;;;;;;8.10;7.30;;;18.90;99.90;;;;;;6200427;23;20130;-71
2023/08/17 05:59:40;;;;;;;8.83;7.57;;;19.00;99.90;;;;;;6174155;23;20166;-70
2023/08/17 06:02:06;;;;;;;6.30;5.60;;;19.00;99.90;;;;;;6175378;23;20215;-73
2023/08/17 06:04:31;;;;;;;9.03;7.07;;;19.00;99.90;;;;;;6173425;23;20388;-68
2023/08/17 06:06:57;;;;;;;7.90;6.70;;;19.10;99.90;;;;;;6173434;23;20186;-70
2023/08/17 06:09:23;;;;;;;9.07;6.70;;;19.10;99.90;;;;;;6202144;23;20167;-72
2023/08/17 06:11:48;;;;;;;9.07;8.13;;;19.20;99.90;;;;;;6203669;23;20189;-71
2023/08/17 06:14:15;;;;;;;6.97;6.37;;;19.20;99.90;;;;;;6199701;23;20163;-73
2023/08/17 06:16:41;;;;;;;9.30;6.57;;;19.30;99.90;;;;;;6199744;23;20370;-71
2023/08/17 06:19:07;;;;;;;12.40;10.53;;;19.40;99.90;;;;;;6172669;23;20662;-72
2023/08/17 06:21:32;;;;;;;9.40;8.03;;;19.60;99.90;;;;;;6200432;23;20175;-71
2023/08/17 06:23:58;;;;;;;12.03;9.30;;;19.60;99.90;;;;;;6198105;23;20177;-70
2023/08/17 06:26:24;;;;;;;9.07;8.03;;;19.70;99.90;;;;;;6200188;23;20135;-74
2023/08/17 06:28:50;;;;;;;8.13;7.40;;;19.70;99.90;;;;;;6200556;23;20146;-73
2023/08/17 06:31:16;;;;;;;11.70;9.47;;;19.70;99.90;;;;;;6149564;23;20174;-72
2023/08/17 06:33:41;;;;;;;7.17;6.20;;;19.70;99.90;;;;;;6172747;23;20370;-69
2023/08/17 06:36:07;;;;;;;9.07;8.17;;;19.70;99.90;;;;;;6200303;23;20472;-72
2023/08/17 06:38:33;;;;;;;12.80;9.20;;;19.80;99.90;;;;;;6201474;23;20155;-71
2023/08/17 06:40:58;;;;;;;10.20;9.30;;;19.90;99.90;;;;;;6198812;23;20186;-72
2023/08/17 06:43:25;;;;;;;7.97;7.27;;;19.80;99.90;;;;;;6199383;23;20131;-75
2023/08/17 06:45:51;;;;;;;7.00;6.30;;;19.80;99.90;;;;;;6173980;23;20147;-70
2023/08/17 06:48:16;;;;;;;7.63;6.87;;;19.80;99.90;;;;;;6127446;23;20369;-72
2023/08/17 06:50:42;;;;;;;7.53;6.73;;;19.90;99.90;;;;;;6203246;23;20154;-72
2023/08/17 06:53:08;;;;;;;8.40;6.87;;;19.90;99.90;;;;;;6176441;23;20223;-74
2023/08/17 06:55:35;;;;;;;8.03;6.70;;;19.90;99.90;;;;;;6203202;23;20218;-73
2023/08/17 06:58:01;;;;;;;7.97;7.17;;;20.00;99.90;;;;;;6202991;23;20531;-74
2023/08/17 07:00:27;;;;;;;7.10;6.40;;;20.10;99.90;;;;;;6175317;23;20474;-73
2023/08/17 07:02:52;;;;;;;8.90;8.10;;;20.10;99.90;;;;;;6174880;23;20373;-70
2023/08/17 07:05:18;;;;;;;10.10;8.00;;;20.20;99.90;;;;;;6202671;23;20138;-71
2023/08/17 07:07:48;;;;;;;6.17;5.67;;;20.20;99.90;;;;;;6151791;23;20149;-75
2023/08/17 07:10:15;;;;;;;9.30;7.90;;;20.30;99.90;;;;;;6153584;23;20170;-72
2023/08/17 07:12:41;;;;;;;12.27;7.20;;;20.40;99.90;;;;;;6203237;23;20405;-71
2023/08/17 07:15:07;;;;;;;8.27;7.47;;;20.40;99.90;;;;;;6177502;23;20198;-74
2023/08/17 07:17:36;;;;;;;7.83;5.93;;;20.50;99.90;;;;;;6200764;23;20142;-72
2023/08/17 07:20:18;;;;;;;9.30;7.73;;;20.60;99.90;;;;;;6175790;23;20413;-70
2023/08/17 07:22:44;;;;;;;8.30;7.50;;;20.60;99.90;;;;;;6202064;23;20437;-71
2023/08/17 07:25:10;;;;;;;8.13;7.43;;;20.70;99.90;;;;;;6201230;23;20149;-73
2023/08/17 07:27:35;;;;;;;7.43;6.73;;;20.80;99.90;;;;;;6202701;23;20209;-74
2023/08/17 07:30:01;;;;;;;7.90;7.10;;;20.90;99.90;;;;;;6201940;23;20189;-72
2023/08/17 07:32:27;;;;;;;8.30;7.40;;;20.90;99.90;;;;;;6200242;23;20182;-70
2023/08/17 07:34:52;;;;;;;7.93;7.13;;;21.00;99.90;;;;;;6203158;23;20170;-70
2023/08/17 07:37:18;;;;;;;8.40;6.80;;;21.10;99.90;;;;;;6152092;23;20142;-71
2023/08/17 07:39:44;;;;;;;14.43;11.23;;;21.30;99.90;;;;;;6153232;23;20175;-72
2023/08/17 07:42:11;;;;;;;7.67;6.97;;;21.30;99.90;;;;;;6176854;23;20218;-74
2023/08/17 07:44:39;;;;;;;10.50;9.43;;;21.40;99.90;;;;;;6202823;23;20132;-73
2023/08/17 07:47:05;;;;;;;11.93;8.27;;;21.50;99.90;;;;;;6175711;23;20362;-72
2023/08/17 07:49:31;;;;;;;8.57;6.90;;;21.60;99.90;;;;;;6174528;23;20390;-71
2023/08/17 07:51:56;;;;;;;7.50;6.70;;;21.60;99.90;;;;;;6200185;23;20370;-71
2023/08/17 07:54:22;;;;;;;11.53;8.20;;;21.60;99.90;;;;;;6174387;23;20161;-72
2023/08/17 07:56:48;;;;;;;11.80;8.90;;;21.60;99.90;;;;;;6176714;23;20170;-72
2023/08/17 07:59:14;;;;;;;15.23;9.37;;;21.60;99.90;;;;;;6203503;23;20126;-73
2023/08/17 08:01:39;;;;;;;12.53;9.80;;;21.60;99.90;;;;;;6180296;23;20429;-72
2023/08/17 08:04:06;;;;;;;16.60;10.80;;;21.50;99.90;;;;;;6202028;23;20139;-72
2023/08/17 08:06:32;;;;;;;13.17;10.07;;;21.30;99.90;;;;;;6175460;23;20135;-72
2023/08/17 08:08:58;;;;;;;14.07;8.77;;;21.30;99.90;;;;;;6201325;23;20433;-71
2023/08/17 08:11:23;;;;;;;9.40;7.20;;;21.30;99.90;;;;;;6176804;23;20182;-71
2023/08/17 08:13:49;;;;;;;8.53;7.57;;;21.30;99.90;;;;;;6174680;23;20145;-68
2023/08/17 08:16:14;;;;;;;10.97;8.77;;;21.40;99.90;;;;;;6199012;23;20131;-71
2023/08/17 08:18:40;;;;;;;12.77;9.57;;;21.50;99.90;;;;;;6175561;23;20158;-73
2023/08/17 08:21:05;;;;;;;16.90;11.20;;;21.60;99.90;;;;;;6150900;23;20182;-71
2023/08/17 08:23:31;;;;;;;18.13;11.00;;;21.70;99.90;;;;;;6178395;23;20123;-71
2023/08/17 08:25:58;;;;;;;11.67;9.00;;;21.70;99.90;;;;;;6176407;23;20505;-74
2023/08/17 08:28:24;;;;;;;14.23;10.27;;;21.80;99.90;;;;;;6200832;23;20127;-71
2023/08/17 08:30:50;;;;;;;11.30;9.20;;;21.70;99.90;;;;;;6200605;23;20402;-74
2023/08/17 08:33:15;;;;;;;15.40;12.13;;;21.70;99.90;;;;;;6205482;23;20365;-74
2023/08/17 08:35:42;;;;;;;14.07;10.20;;;21.70;99.90;;;;;;6183441;23;20150;-73
2023/08/17 08:38:08;;;;;;;19.30;10.93;;;21.80;99.90;;;;;;6175267;23;20135;-71
2023/08/17 08:40:37;;;;;;;12.90;10.47;;;21.80;99.90;;;;;;6200446;23;20421;-70
2023/08/17 08:43:03;;;;;;;19.20;10.97;;;21.80;99.90;;;;;;6201446;23;20127;-72
2023/08/17 08:45:32;;;;;;;13.03;11.67;;;21.80;99.90;;;;;;6175905;23;20358;-74
2023/08/17 08:48:00;;;;;;;13.27;10.03;;;21.90;99.90;;;;;;6176853;23;20370;-72
2023/08/17 08:50:29;;;;;;;11.20;9.33;;;21.90;99.90;;;;;;6202135;23;20462;-71
2023/08/17 08:53:04;;;;;;;11.97;9.47;;;22.10;99.90;;;;;;6202695;23;20358;-70
2023/08/17 08:55:37;;;;;;;13.23;10.80;;;22.10;99.90;;;;;;6176919;23;20370;-73
2023/08/17 08:58:06;;;;;;;12.50;10.10;;;22.20;99.90;;;;;;6203398;23;20638;-72
2023/08/17 09:00:34;;;;;;;13.17;8.87;;;22.20;99.90;;;;;;6175508;23;20417;-73
2023/08/17 09:03:04;;;;;;;15.80;10.07;;;22.20;99.90;;;;;;6204981;23;20366;-72
2023/08/17 09:05:34;;;;;;;13.43;10.83;;;22.30;99.90;;;;;;6201278;23;20362;-74
2023/08/17 09:08:01;;;;;;;11.90;10.03;;;22.20;99.90;;;;;;6203536;23;20366;-71
2023/08/17 09:10:28;;;;;;;15.37;11.00;;;22.10;99.90;;;;;;6200849;23;20704;-72
2023/08/17 09:12:54;;;;;;;17.07;12.83;;;22.10;99.90;;;;;;6180238;23;20388;-72
2023/08/17 09:15:19;;;;;;;24.80;12.47;;;22.10;99.90;;;;;;6181090;23;20374;-71
2023/08/17 09:17:47;;;;;;;13.43;10.83;;;22.20;99.90;;;;;;6178164;23;20185;-73
2023/08/17 09:20:35;;;;;;;16.53;12.10;;;22.30;99.90;;;;;;6203938;23;20189;-72
2023/08/17 09:23:05;;;;;;;13.63;12.33;;;22.40;99.90;;;;;;6181128;23;20373;-72
2023/08/17 09:25:35;;;;;;;17.17;12.90;;;22.50;99.90;;;;;;6181684;23;20346;-74
2023/08/17 09:28:12;;;;;;;22.60;15.13;;;22.60;99.90;;;;;;6185005;23;20409;-74
2023/08/17 09:31:00;;;;;;;15.60;12.30;;;22.70;99.90;;;;;;6161992;23;20398;-73
2023/08/17 09:33:31;;;;;;;15.37;13.03;;;22.80;99.90;;;;;;6180809;23;20362;-73
2023/08/17 09:35:59;;;;;;;13.03;11.73;;;22.90;99.90;;;;;;6207795;23;20329;-75
2023/08/17 09:38:25;;;;;;;19.33;16.00;;;23.00;99.90;;;;;;6179823;23;20355;-75
2023/08/17 09:40:53;;;;;;;15.87;12.90;;;23.10;99.90;;;;;;6205583;23;20489;-75
2023/08/17 09:43:20;;;;;;;15.33;13.07;;;23.20;99.90;;;;;;6180807;23;20365;-75
2023/08/17 09:45:49;;;;;;;13.70;12.43;;;23.30;99.90;;;;;;6204127;23;20349;-72
2023/08/17 09:48:18;;;;;;;16.00;14.47;;;23.40;99.90;;;;;;6204893;23;20369;-75
2023/08/17 09:50:45;;;;;;;18.90;15.70;;;23.40;99.90;;;;;;6178186;23;20450;-74
2023/08/17 09:53:17;;;;;;;18.80;16.73;;;23.30;99.90;;;;;;6206506;23;20389;-73
2023/08/17 09:55:46;;;;;;;18.83;16.67;;;23.20;99.90;;;;;;6208323;23;20358;-75
2023/08/17 09:58:16;;;;;;;15.73;14.13;;;23.20;99.90;;;;;;6180361;23;20380;-75
2023/08/17 10:00:49;;;;;;;17.57;15.77;;;23.40;99.90;;;;;;6182371;23;20394;-75
2023/08/17 10:03:16;;;;;;;22.27;16.70;;;23.50;99.90;;;;;;6180792;23;20358;-74
2023/08/17 10:05:45;;;;;;;17.10;14.47;;;23.60;99.90;;;;;;6179942;23;20370;-76
2023/08/17 10:08:18;;;;;;;18.43;13.40;;;23.70;99.90;;;;;;6129976;23;20371;-75
2023/08/17 10:10:50;;;;;;;16.33;14.70;;;23.80;99.90;;;;;;6182346;23;20385;-76
2023/08/17 10:13:35;;;;;;;15.37;13.40;;;23.80;99.90;;;;;;6207776;23;20369;-75
2023/08/17 10:16:54;;;;;;;17.70;15.27;;;23.80;99.90;;;;;;6180674;23;20393;-74
2023/08/17 10:19:51;;;;;;;15.40;13.70;;;23.80;99.90;;;;;;6061161;23;20404;-75
2023/08/17 10:22:49;;;;;;;19.60;17.50;;;23.70;99.90;;;;;;6151736;23;20493;-75
2023/08/17 10:25:53;;;;;;;16.47;14.73;;;23.60;99.90;;;;;;6064391;23;20385;-76
2023/08/17 10:28:24;;;;;;;16.50;14.63;;;23.40;99.90;;;;;;5981710;23;20416;-73
2023/08/17 10:30:51;;;;;;;18.27;14.30;;;23.30;99.90;;;;;;5979038;24;20698;-73
2023/08/17 10:33:18;;;;;;;15.27;13.90;;;23.20;99.90;;;;;;6002639;24;20376;-76
2023/08/17 10:35:46;;;;;;;15.60;14.00;;;23.10;99.90;;;;;;6003352;24;20420;-74
2023/08/17 10:38:20;;;;;;;15.10;13.37;;;23.10;99.90;;;;;;5980260;24;20396;-76
2023/08/17 10:41:15;;;;;;;16.23;14.73;;;23.20;99.90;;;;;;6002360;24;20426;-76
2023/08/17 10:44:00;;;;;;;15.37;13.77;;;23.30;99.90;;;;;;6004728;24;20171;-76
2023/08/17 10:46:35;;;;;;;16.47;14.67;;;23.20;99.90;;;;;;6002880;24;20717;-75
2023/08/17 10:49:07;;;;;;;15.47;13.90;;;23.20;99.90;;;;;;6001499;23;20376;-74
2023/08/17 10:51:34;;;;;;;17.27;15.50;;;23.30;99.90;;;;;;5978804;24;20895;-75
2023/08/17 10:54:03;;;;;;;15.43;13.93;;;23.30;99.90;;;;;;6004674;23;20376;-76
2023/08/17 10:59:26;;;;;;;17.90;15.90;;;23.30;99.90;;;;;;6221752;23;20435;-75
2023/08/17 11:01:52;;;;;;;16.17;14.47;;;23.40;99.90;;;;;;6178661;23;20469;-74
2023/08/17 11:04:21;;;;;;;16.47;14.70;;;23.30;99.90;;;;;;6159306;23;20378;-75
2023/08/17 11:07:01;;;;;;;15.73;14.07;;;23.30;99.90;;;;;;6185627;23;20155;-75
2023/08/17 11:09:27;;;;;;;16.43;14.63;;;23.20;99.90;;;;;;6181439;23;20683;-75
2023/08/17 11:12:18;;;;;;;16.63;15.00;;;23.10;99.90;;;;;;6160148;23;20431;-77
2023/08/17 11:14:57;;;;;;;14.40;12.90;;;23.10;99.90;;;;;;6190157;23;20161;-76
2023/08/17 11:17:23;;;;;;;14.17;12.83;;;23.10;99.90;;;;;;6159175;23;20412;-74
2023/08/17 11:20:10;;;;;;;11.37;10.27;;;23.10;99.90;;;;;;6182102;23;20405;-75
2023/08/17 11:22:39;;;;;;;10.63;9.47;;;23.20;99.90;;;;;;6186319;23;20437;-75
2023/08/17 11:25:08;;;;;;;11.83;10.70;;;23.20;99.90;;;;;;6182795;23;20378;-75
2023/08/17 11:27:34;;;;;;;12.60;11.40;;;23.10;99.90;;;;;;6158789;23;20405;-75
2023/08/17 11:30:27;;;;;;;14.07;12.60;;;23.10;99.90;;;;;;6159740;23;20460;-76
2023/08/17 11:35:50;;;;;;;17.90;15.40;;;23.20;99.90;;;;;;6214628;23;20520;-75
2023/08/17 11:38:19;;;;;;;15.10;13.70;;;23.40;99.90;;;;;;6185854;23;20352;-74
2023/08/17 11:40:45;;;;;;;15.63;14.07;;;23.40;99.90;;;;;;6188497;23;20414;-75
2023/08/17 11:43:14;;;;;;;16.67;15.07;;;23.70;99.90;;;;;;6179512;23;20383;-77
2023/08/17 11:45:46;;;;;;;18.03;14.97;;;24.00;99.90;;;;;;6158444;23;20367;-75
2023/08/17 11:48:12;;;;;;;16.77;15.07;;;24.40;99.90;;;;;;6127994;23;20378;-74
2023/08/17 11:50:41;;;;;;;14.70;13.27;;;24.70;99.90;;;;;;6152566;23;20403;-75
2023/08/17 11:53:53;;;;;;;14.97;12.73;;;24.80;99.90;;;;;;6132266;23;20260;-76
2023/08/17 11:59:11;;;;;;;14.40;13.00;;;25.30;98.10;;;;;;6211128;23;20453;-74
2023/08/17 12:01:43;;;;;;;13.13;11.83;;;25.20;98.00;;;;;;6185562;23;20426;-77
2023/08/17 12:04:08;;;;;;;18.03;14.40;;;25.20;98.20;;;;;;6163905;23;20405;-77
2023/08/17 12:09:10;;;;;;;18.97;16.07;;;25.30;97.00;;;;;;6205895;23;20242;-74
2023/08/17 12:11:35;;;;;;;19.00;17.10;;;25.30;96.80;;;;;;6183157;23;20413;-76
2023/08/17 12:14:10;;;;;;;16.80;15.10;;;25.30;96.10;;;;;;6160472;23;20182;-78
2023/08/17 12:35:26;;;;;;;17.43;15.73;;;26.10;92.00;;;;;;6220555;23;20448;-79
2023/08/17 12:41:44;;;;;;;16.80;14.90;;;26.20;90.30;;;;;;6209812;23;20442;-77
2023/08/17 12:44:14;;;;;;;15.83;14.03;;;26.40;88.10;;;;;;6161504;23;20450;-76
2023/08/17 12:46:43;;;;;;;16.03;14.43;;;26.20;89.20;;;;;;6158608;23;20379;-78
2023/08/17 12:49:38;;;;;;;15.63;14.00;;;26.00;88.20;;;;;;6136546;23;20371;-77
2023/08/17 12:57:47;;;;;;;16.17;14.53;;;25.10;94.60;;;;;;6214461;23;20447;-78
2023/08/17 13:00:17;;;;;;;16.17;14.57;;;24.90;95.50;;;;;;6185270;23;20421;-78
2023/08/17 13:02:51;;;;;;;16.10;14.40;;;24.70;96.90;;;;;;6212067;23;20401;-78
2023/08/17 15:13:49;;;;;;;10.00;9.10;;;25.00;98.10;;;;;;6186705;23;20403;-79
2023/08/17 15:16:58;;;;;;;10.70;9.70;;;25.00;97.80;;;;;;6214286;23;20405;-79
2023/08/17 16:22:28;;;;;;;7.33;6.67;;;24.70;99.20;;;;;;6192139;23;20425;-79
2023/08/17 16:24:55;;;;;;;8.97;7.20;;;24.70;99.60;;;;;;6217807;23;20405;-79
2023/08/17 16:58:50;;;;;;;9.73;7.70;;;24.10;99.90;;;;;;6095622;23;20374;-79
2023/08/17 17:21:01;;;;;;;7.53;6.63;;;24.00;99.90;;;;;;6208892;23;20447;-79
2023/08/17 17:24:12;;;;;;;9.00;8.10;;;24.00;99.90;;;;;;6191510;23;20444;-79
2023/08/17 17:26:50;;;;;;;9.03;7.07;;;24.00;99.90;;;;;;6217130;23;20373;-79
2023/08/17 17:29:20;;;;;;;7.00;6.40;;;23.90;99.90;;;;;;6215333;23;20373;-79